Time;durP1;ratioP1;P1;durP2;ratioP2;P2;SDS_P1;SDS_P2;PMS_P1;PMS_P2;Temp;Humidity;BMP_temperature;BMP_pressure;BME280_temperature;BME280_humidity;BME280_pressure;Samples;Min_cycle;Max_cycle;Signal;HPM_P1;HPM_P2
2021/08/28 00:01:07;;;;;;;0.95;0.75;;;;;;;12.72;100.00;100703.03;5187819;28;20030;-82
2021/08/28 00:03:37;;;;;;;1.55;0.73;;;;;;;12.83;100.00;100695.53;5188371;28;20037;-82
2021/08/28 00:06:07;;;;;;;1.40;0.77;;;;;;;12.67;100.00;100699.72;5187900;28;20024;-82
2021/08/28 00:08:37;;;;;;;0.95;0.85;;;;;;;12.68;100.00;100693.59;5189478;28;20064;-81
2021/08/28 00:11:08;;;;;;;2.72;1.13;;;;;;;12.72;100.00;100695.16;5187954;28;20022;-81
2021/08/28 00:13:39;;;;;;;2.55;0.90;;;;;;;12.72;100.00;100697.78;5188225;28;20025;-81
2021/08/28 00:16:10;;;;;;;1.33;0.90;;;;;;;12.80;100.00;100700.94;5189195;28;20063;-82
2021/08/28 00:18:40;;;;;;;1.33;0.90;;;;;;;12.89;100.00;100697.94;5187981;28;20549;-82
2021/08/28 00:21:11;;;;;;;1.10;0.93;;;;;;;12.80;100.00;100697.47;5188672;28;20014;-81
2021/08/28 00:23:42;;;;;;;1.50;1.02;;;;;;;12.86;100.00;100694.56;5188123;28;20021;-82
2021/08/28 00:26:12;;;;;;;2.20;1.00;;;;;;;12.88;100.00;100693.59;5187804;28;20184;-81
2021/08/28 00:28:42;;;;;;;1.45;0.95;;;;;;;12.90;100.00;100700.47;5188562;28;20039;-81
2021/08/28 00:31:13;;;;;;;2.47;1.00;;;;;;;12.95;100.00;100695.06;5184870;28;20062;-82
2021/08/28 00:33:43;;;;;;;3.15;1.30;;;;;;;12.84;100.00;100705.13;5186526;28;20053;-82
2021/08/28 00:36:13;;;;;;;1.60;1.08;;;;;;;12.91;100.00;100702.16;5193841;28;20293;-81
2021/08/28 00:38:44;;;;;;;1.60;1.17;;;;;;;12.87;100.00;100704.16;5195112;28;20014;-81
2021/08/28 00:41:14;;;;;;;1.77;1.02;;;;;;;12.77;100.00;100695.81;5195007;28;20025;-81
2021/08/28 00:43:45;;;;;;;2.08;1.15;;;;;;;12.73;100.00;100696.88;5195126;28;20238;-81
2021/08/28 00:46:15;;;;;;;1.70;1.20;;;;;;;12.78;100.00;100702.78;5195321;28;20030;-82
2021/08/28 00:48:46;;;;;;;1.80;1.33;;;;;;;12.83;100.00;100700.78;5190030;28;20025;-81
2021/08/28 00:51:16;;;;;;;1.95;1.30;;;;;;;12.88;100.00;100698.84;5186980;28;20087;-82
2021/08/28 00:53:47;;;;;;;2.40;1.58;;;;;;;12.98;100.00;100704.59;5187433;28;20022;-81
2021/08/28 00:56:17;;;;;;;2.50;1.73;;;;;;;13.02;100.00;100707.84;5186972;28;20129;-82
2021/08/28 00:58:48;;;;;;;3.47;1.65;;;;;;;13.02;100.00;100701.75;5185493;28;20033;-81
2021/08/28 01:01:22;;;;;;;1.80;1.27;;;;;;;12.95;100.00;100705.56;5187693;28;20403;-81
2021/08/28 01:03:59;;;;;;;2.60;1.67;;;;;;;13.07;100.00;100694.53;5187458;28;20038;-82
2021/08/28 01:06:42;;;;;;;1.80;1.33;;;;;;;13.16;100.00;100694.13;5186331;28;20029;-81
2021/08/28 01:09:30;;;;;;;2.08;1.60;;;;;;;13.23;100.00;100700.81;5188745;28;20037;-82
2021/08/28 01:12:18;;;;;;;1.90;1.38;;;;;;;13.28;100.00;100704.09;5185633;28;20507;-82
2021/08/28 01:14:54;;;;;;;2.00;1.50;;;;;;;13.43;100.00;100700.78;5183599;28;20066;-82
2021/08/28 01:17:26;;;;;;;2.17;1.17;;;;;;;13.39;100.00;100705.31;5188659;28;20061;-81
2021/08/28 01:20:18;;;;;;;2.15;1.40;;;;;;;13.38;100.00;100710.66;5185986;28;20446;-81
2021/08/28 01:22:50;;;;;;;1.95;1.35;;;;;;;13.36;100.00;100709.81;5187701;28;20022;-82
2021/08/28 01:25:20;;;;;;;2.17;1.25;;;;;;;13.37;100.00;100704.53;5186262;28;20030;-82
2021/08/28 01:28:09;;;;;;;2.58;1.27;;;;;;;13.37;100.00;100703.69;5189510;28;20133;-81
2021/08/28 01:30:42;;;;;;;1.98;1.30;;;;;;;13.37;100.00;100711.56;5185190;28;20173;-82
2021/08/28 01:33:16;;;;;;;2.22;1.30;;;;;;;13.39;100.00;100709.72;5188553;28;20045;-82
2021/08/28 01:35:48;;;;;;;1.40;1.08;;;;;;;13.36;100.00;100701.97;5183494;28;20030;-81
2021/08/28 01:38:19;;;;;;;2.13;1.30;;;;;;;13.43;100.00;100703.41;5188645;28;20029;-81
2021/08/28 01:40:51;;;;;;;1.95;1.20;;;;;;;13.46;100.00;100705.88;5186128;28;20129;-81
2021/08/28 01:43:22;;;;;;;3.47;1.35;;;;;;;13.61;100.00;100706.03;5187363;28;20053;-82
2021/08/28 01:45:53;;;;;;;1.55;1.02;;;;;;;13.65;100.00;100712.88;5186182;28;20084;-82
2021/08/28 01:48:23;;;;;;;4.07;1.17;;;;;;;13.61;100.00;100715.69;5185604;28;20030;-81
2021/08/28 01:50:53;;;;;;;2.92;1.30;;;;;;;13.56;100.00;100709.81;5182764;28;20072;-81
2021/08/28 01:53:26;;;;;;;2.70;1.30;;;;;;;13.60;100.00;100711.38;5181339;28;20029;-81
2021/08/28 01:55:56;;;;;;;2.90;1.20;;;;;;;13.59;100.00;100702.63;5180979;28;20018;-80
2021/08/28 01:58:29;;;;;;;1.83;1.10;;;;;;;13.61;100.00;100708.66;5183781;28;20022;-81
2021/08/28 02:00:59;;;;;;;1.90;1.08;;;;;;;13.55;100.00;100706.31;5179685;28;20117;-81
2021/08/28 02:03:29;;;;;;;1.70;1.02;;;;;;;13.61;100.00;100707.81;5186303;28;20090;-82
2021/08/28 02:06:04;;;;;;;1.45;1.10;;;;;;;13.72;100.00;100709.03;5186425;28;20026;-82
2021/08/28 02:08:42;;;;;;;3.05;1.30;;;;;;;13.82;100.00;100717.34;5186781;28;20025;-82
2021/08/28 02:11:16;;;;;;;1.52;1.00;;;;;;;13.72;100.00;100718.69;5184789;28;20040;-82
2021/08/28 02:13:54;;;;;;;2.03;1.30;;;;;;;13.66;100.00;100724.22;5185995;28;20350;-81
2021/08/28 02:16:29;;;;;;;1.45;1.05;;;;;;;13.62;100.00;100720.03;5185689;28;20029;-81
2021/08/28 02:19:06;;;;;;;1.77;1.20;;;;;;;13.73;100.00;100718.59;5187455;28;20029;-79
2021/08/28 02:21:39;;;;;;;1.98;1.27;;;;;;;13.74;100.00;100719.47;5185743;28;20037;-81
2021/08/28 02:24:15;;;;;;;2.28;1.25;;;;;;;13.62;100.00;100720.91;5185245;28;20233;-82
2021/08/28 02:26:51;;;;;;;1.85;1.40;;;;;;;13.61;100.00;100718.31;5187189;28;20026;-81
2021/08/28 02:29:24;;;;;;;;;;;;;;;13.73;100.00;100715.16;5186494;28;20029;-81
2021/08/28 02:31:58;;;;;;;3.05;1.17;;;;;;;13.74;100.00;100719.47;5186357;28;19927;-81
2021/08/28 02:34:32;;;;;;;2.08;1.23;;;;;;;13.76;100.00;100715.00;5185672;28;20367;-82
2021/08/28 02:37:03;;;;;;;1.70;1.20;;;;;;;13.72;100.00;100718.69;5185732;28;20034;-80
2021/08/28 02:39:37;;;;;;;1.60;1.25;;;;;;;13.72;100.00;100718.69;5184720;28;20129;-80
2021/08/28 02:42:08;;;;;;;2.00;1.27;;;;;;;13.67;100.00;100713.66;5182632;28;20108;-81
2021/08/28 02:44:42;;;;;;;3.40;1.30;;;;;;;13.65;100.00;100712.00;5184691;28;20421;-81
2021/08/28 02:47:13;;;;;;;2.47;1.33;;;;;;;13.59;100.00;100705.25;5181245;28;20069;-80
2021/08/28 02:49:44;;;;;;;3.13;1.27;;;;;;;13.72;100.00;100710.81;5181244;28;20026;-81
2021/08/28 02:52:18;;;;;;;1.70;1.15;;;;;;;13.68;100.00;100712.72;5180899;28;20022;-81
2021/08/28 02:54:50;;;;;;;2.88;1.42;;;;;;;13.72;100.00;100716.06;5193644;28;20030;-80
2021/08/28 02:57:21;;;;;;;1.98;1.38;;;;;;;13.78;100.00;100711.34;5182065;28;20030;-80
2021/08/28 02:59:53;;;;;;;2.45;1.40;;;;;;;13.77;100.00;100714.06;5180853;28;20072;-80
2021/08/28 03:02:25;;;;;;;1.65;1.30;;;;;;;13.54;100.00;100709.88;5180449;28;20084;-81
2021/08/28 03:04:56;;;;;;;1.70;1.40;;;;;;;13.55;100.00;100716.00;5184994;28;20026;-82
2021/08/28 03:07:26;;;;;;;2.75;1.40;;;;;;;13.60;100.00;100711.38;5184699;28;20044;-81
2021/08/28 03:09:57;;;;;;;2.17;1.40;;;;;;;13.60;100.00;100711.38;5186946;28;20030;-81
2021/08/28 03:12:28;;;;;;;2.88;1.70;;;;;;;13.54;100.00;100717.75;5186080;28;20129;-82
2021/08/28 03:14:58;;;;;;;2.92;1.35;;;;;;;13.64;100.00;100719.03;5190785;28;20121;-82
2021/08/28 03:17:29;;;;;;;1.42;1.17;;;;;;;13.53;100.00;100717.81;5191507;28;20041;-81
2021/08/28 03:20:00;;;;;;;1.42;1.15;;;;;;;13.68;100.00;100725.84;5191312;28;20032;-81
2021/08/28 03:22:31;;;;;;;1.58;1.40;;;;;;;13.60;100.00;100725.34;5193198;28;20472;-82
2021/08/28 03:25:05;;;;;;;1.70;1.23;;;;;;;13.58;100.00;100723.72;5192183;28;20045;-81
2021/08/28 03:27:39;;;;;;;2.38;1.50;;;;;;;13.67;100.00;100718.91;5192381;28;20253;-81
2021/08/28 03:30:12;;;;;;;1.88;1.30;;;;;;;13.66;100.00;100721.59;5192162;28;20040;-81
2021/08/28 03:32:43;;;;;;;1.77;1.23;;;;;;;13.67;100.00;100713.66;5190627;28;20025;-82
2021/08/28 03:35:14;;;;;;;2.00;1.50;;;;;;;13.74;100.00;100719.47;5190754;28;20140;-81
2021/08/28 03:37:44;;;;;;;1.95;1.50;;;;;;;13.78;100.00;100719.25;5191105;28;20018;-82
2021/08/28 03:40:14;;;;;;;2.67;1.90;;;;;;;13.70;100.00;100715.25;5190760;28;20026;-82
2021/08/28 03:42:45;;;;;;;2.20;1.58;;;;;;;13.68;100.00;100717.09;5190813;28;20018;-81
2021/08/28 03:45:15;;;;;;;2.60;1.67;;;;;;;13.61;100.00;100716.53;5189142;28;20025;-81
2021/08/28 03:47:46;;;;;;;2.65;1.73;;;;;;;13.57;100.00;100708.88;5188995;28;20484;-82
2021/08/28 03:50:16;;;;;;;2.45;1.50;;;;;;;13.59;100.00;100704.41;5201413;28;20030;-82
2021/08/28 03:52:47;;;;;;;2.03;1.42;;;;;;;13.59;100.00;100704.41;5190862;28;20075;-81
2021/08/28 03:55:17;;;;;;;2.30;1.80;;;;;;;13.61;100.00;100713.06;5186741;28;20041;-81
2021/08/28 03:57:48;;;;;;;4.22;1.75;;;;;;;13.53;100.00;100707.28;5190083;28;20030;-82
2021/08/28 04:00:18;;;;;;;2.38;1.65;;;;;;;13.43;100.00;100709.50;5186312;28;20026;-81
2021/08/28 04:02:48;;;;;;;2.30;1.60;;;;;;;13.48;100.00;100704.91;5186665;28;20022;-81
2021/08/28 04:05:19;;;;;;;2.20;1.65;;;;;;;13.37;100.00;100699.28;5186860;28;20030;-80
2021/08/28 04:07:49;;;;;;;2.22;1.60;;;;;;;13.38;100.00;100702.75;5190876;28;20034;-82
2021/08/28 04:10:19;;;;;;;2.53;1.70;;;;;;;13.37;100.00;100707.16;5192589;28;20264;-82
2021/08/28 04:12:50;;;;;;;2.13;1.88;;;;;;;13.49;100.00;100703.13;5192186;28;20037;-82
2021/08/28 04:15:20;;;;;;;2.83;1.90;;;;;;;13.44;100.00;100710.34;5191266;28;20053;-82
2021/08/28 04:17:50;;;;;;;3.65;1.88;;;;;;;13.49;100.00;100708.38;5191340;28;20268;-82
2021/08/28 04:20:21;;;;;;;2.80;1.80;;;;;;;13.58;100.00;100706.16;5189933;28;20088;-81
2021/08/28 04:22:51;;;;;;;2.50;1.90;;;;;;;13.60;100.00;100708.75;5192642;28;20018;-81
2021/08/28 04:25:23;;;;;;;2.42;1.50;;;;;;;13.58;100.00;100713.22;5191949;28;20033;-82
2021/08/28 04:27:53;;;;;;;2.92;1.80;;;;;;;13.58;100.00;100713.22;5196059;28;20033;-82
2021/08/28 04:30:23;;;;;;;2.05;1.50;;;;;;;13.74;100.00;100714.22;5195489;28;20026;-82
2021/08/28 04:32:54;;;;;;;2.47;1.70;;;;;;;13.67;100.00;100718.91;5194692;28;20030;-82
2021/08/28 04:35:24;;;;;;;1.83;1.35;;;;;;;13.54;100.00;100725.63;5194621;28;20026;-82
2021/08/28 04:37:55;;;;;;;2.42;1.50;;;;;;;13.51;100.00;100730.16;5195830;28;20022;-82
2021/08/28 04:40:25;;;;;;;2.20;1.70;;;;;;;13.61;100.00;100724.41;5193784;28;20406;-82
2021/08/28 04:42:56;;;;;;;2.30;1.60;;;;;;;13.71;100.00;100730.13;5193443;28;20026;-82
2021/08/28 04:45:26;;;;;;;1.73;1.30;;;;;;;13.67;100.00;100731.16;5193251;28;20053;-82
2021/08/28 04:47:56;;;;;;;2.75;1.65;;;;;;;13.77;100.00;100735.09;5193925;28;20026;-82
2021/08/28 04:50:27;;;;;;;1.88;1.58;;;;;;;13.79;100.00;100723.59;5187342;28;20034;-82
2021/08/28 04:52:58;;;;;;;2.30;1.40;;;;;;;13.76;100.00;100722.88;5190568;28;20025;-82
2021/08/28 04:55:29;;;;;;;2.13;1.60;;;;;;;13.79;100.00;100723.59;5187175;28;20116;-82
2021/08/28 04:57:59;;;;;;;2.55;1.50;;;;;;;13.75;100.00;100726.44;5188063;28;20227;-82
2021/08/28 05:00:31;;;;;;;2.42;1.65;;;;;;;13.81;100.00;100732.25;5186514;28;20104;-82
2021/08/28 05:03:01;;;;;;;2.08;1.55;;;;;;;13.83;100.00;100735.66;5185775;28;20392;-82
2021/08/28 05:05:31;;;;;;;4.45;1.60;;;;;;;13.83;100.00;100737.44;5184656;28;20196;-82
2021/08/28 05:08:02;;;;;;;2.05;1.67;;;;;;;13.72;100.00;100734.47;5185750;28;20530;-82
2021/08/28 05:10:32;;;;;;;2.33;1.60;;;;;;;13.63;100.00;100733.09;5193345;28;20022;-82
2021/08/28 05:13:02;;;;;;;1.90;1.45;;;;;;;13.52;100.00;100739.72;5194155;28;20136;-82
2021/08/28 05:15:34;;;;;;;2.88;1.80;;;;;;;13.60;100.00;100748.97;5193764;28;20033;-82
2021/08/28 05:18:04;;;;;;;2.08;1.70;;;;;;;13.51;100.00;100745.91;5193912;28;20045;-82
2021/08/28 05:20:35;;;;;;;2.13;1.75;;;;;;;13.49;100.00;100737.25;5193889;28;20029;-82
2021/08/28 05:23:05;;;;;;;2.10;1.60;;;;;;;13.68;100.00;100748.63;5194329;28;20033;-82
2021/08/28 05:25:35;;;;;;;2.00;1.45;;;;;;;13.63;100.00;100748.00;5191915;28;20431;-82
2021/08/28 05:28:06;;;;;;;2.80;1.52;;;;;;;13.81;100.00;100741.91;5194817;28;20430;-83
2021/08/28 05:30:36;;;;;;;3.30;1.40;;;;;;;13.99;100.00;100743.66;5193175;28;20029;-82
2021/08/28 05:33:06;;;;;;;2.78;1.67;;;;;;;13.94;100.00;100740.41;5193136;28;20030;-82
2021/08/28 05:35:37;;;;;;;1.83;1.48;;;;;;;14.05;100.00;100746.03;5193605;28;20032;-82
2021/08/28 05:38:08;;;;;;;2.65;1.45;;;;;;;14.21;100.00;100747.88;5192057;28;20030;-82
2021/08/28 05:40:38;;;;;;;2.08;1.50;;;;;;;14.30;100.00;100741.34;5193443;28;20029;-82
2021/08/28 05:43:08;;;;;;;1.60;1.40;;;;;;;14.27;100.00;100752.00;5193386;28;20060;-82
2021/08/28 05:45:38;;;;;;;2.13;1.30;;;;;;;14.45;100.00;100751.13;5192280;28;20030;-81
2021/08/28 05:48:09;;;;;;;2.53;1.60;;;;;;;14.31;100.00;100751.78;5191919;28;20034;-82
2021/08/28 05:50:39;;;;;;;2.30;1.60;;;;;;;14.43;100.00;100764.34;5194148;28;20289;-82
2021/08/28 05:53:09;;;;;;;2.10;1.52;;;;;;;14.53;100.00;100760.34;5189738;28;20030;-82
2021/08/28 05:55:40;;;;;;;2.00;1.58;;;;;;;14.59;100.00;100764.47;5185862;28;20029;-82
2021/08/28 05:58:10;;;;;;;2.53;1.65;;;;;;;14.52;100.00;100763.91;5186779;28;20044;-82
2021/08/28 06:00:40;;;;;;;1.85;1.42;;;;;;;14.65;100.00;100761.53;5185988;28;20033;-81
2021/08/28 06:03:10;;;;;;;3.23;1.63;;;;;;;14.45;100.00;100759.00;5194629;28;20041;-82
2021/08/28 06:05:41;;;;;;;4.40;1.90;;;;;;;14.70;100.00;100759.50;5182836;28;20269;-82
2021/08/28 06:08:11;;;;;;;3.17;1.77;;;;;;;14.71;100.00;100761.22;5182891;28;20021;-82
2021/08/28 06:10:41;;;;;;;3.00;1.70;;;;;;;14.96;100.00;100754.66;5186654;28;20579;-82
2021/08/28 06:13:12;;;;;;;1.90;1.38;;;;;;;14.90;100.00;100755.81;5201244;28;20651;-82
2021/08/28 06:15:42;;;;;;;1.80;1.40;;;;;;;15.03;100.00;100751.63;5192639;28;20037;-82
2021/08/28 06:18:13;;;;;;;2.90;1.50;;;;;;;15.01;100.00;100756.13;5192289;28;20492;-82
2021/08/28 06:20:43;;;;;;;2.08;1.50;;;;;;;14.94;100.00;100760.00;5194741;28;20545;-81
2021/08/28 06:23:13;;;;;;;1.75;1.50;;;;;;;15.09;100.00;100755.72;5192607;28;20726;-81
2021/08/28 06:25:44;;;;;;;2.20;1.60;;;;;;;15.36;100.00;100755.19;5192834;28;20105;-81
2021/08/28 06:28:14;;;;;;;2.10;1.65;;;;;;;15.42;100.00;100757.53;5193574;28;20464;-81
2021/08/28 06:30:44;;;;;;;1.60;1.30;;;;;;;15.52;100.00;100750.81;5194410;28;20041;-81
2021/08/28 06:33:14;;;;;;;1.90;1.20;;;;;;;15.49;100.00;100758.03;5194059;28;20022;-81
2021/08/28 06:35:45;;;;;;;1.67;1.45;;;;;;;15.41;100.00;100760.22;5193208;28;20450;-80
2021/08/28 06:38:15;;;;;;;2.83;1.27;;;;;;;15.76;100.00;100749.53;5193281;28;20097;-81
2021/08/28 06:40:45;;;;;;;1.70;1.20;;;;;;;15.82;100.00;100759.72;5193769;28;20052;-80
2021/08/28 06:43:16;;;;;;;2.78;1.10;;;;;;;15.82;100.00;100759.72;5184793;28;20268;-81
2021/08/28 06:45:46;;;;;;;1.67;1.20;;;;;;;16.21;100.00;100756.72;5192469;28;20025;-81
2021/08/28 06:48:17;;;;;;;2.40;1.20;;;;;;;16.29;100.00;100755.34;5190184;28;20111;-79
2021/08/28 06:50:47;;;;;;;1.55;1.20;;;;;;;15.98;100.00;100770.28;5185935;28;20646;-79
2021/08/28 06:53:18;;;;;;;1.95;1.02;;;;;;;16.20;100.00;100769.03;5184310;28;20033;-79
2021/08/28 06:55:48;;;;;;;1.80;1.15;;;;;;;16.35;100.00;100770.84;5184632;28;20025;-79
2021/08/28 06:58:18;;;;;;;1.45;1.08;;;;;;;16.16;100.00;100775.41;5187586;28;20112;-79
2021/08/28 07:00:48;;;;;;;2.83;1.30;;;;;;;16.34;100.00;100773.53;5185375;28;20105;-79
2021/08/28 07:03:19;;;;;;;1.10;1.00;;;;;;;16.23;100.00;100774.13;5184737;28;20246;-79
2021/08/28 07:05:49;;;;;;;1.60;1.15;;;;;;;16.49;100.00;100768.28;5185795;28;20065;-79
2021/08/28 07:08:19;;;;;;;1.35;0.90;;;;;;;16.67;100.00;100761.97;5194105;28;20057;-79
2021/08/28 07:10:50;;;;;;;1.08;0.88;;;;;;;16.88;100.00;100763.34;5186605;28;20083;-78
2021/08/28 07:13:21;;;;;;;1.35;0.85;;;;;;;16.67;100.00;100761.97;5185008;28;20475;-79
2021/08/28 07:15:52;;;;;;;2.00;0.98;;;;;;;16.40;100.00;100768.78;5186806;28;20079;-79
2021/08/28 07:18:22;;;;;;;1.23;0.80;;;;;;;17.02;98.96;100764.28;5185114;28;20488;-79
2021/08/28 07:20:52;;;;;;;0.98;0.70;;;;;;;17.42;99.55;100768.03;5185410;28;20028;-79
2021/08/28 07:23:23;;;;;;;0.70;0.50;;;;;;;18.46;95.73;100767.59;5187165;28;20033;-79
2021/08/28 07:25:53;;;;;;;0.75;0.40;;;;;;;18.53;91.62;100767.09;5184802;28;20492;-79
2021/08/28 07:28:23;;;;;;;1.00;0.50;;;;;;;18.42;91.54;100763.47;5188583;28;20116;-79
2021/08/28 07:30:54;;;;;;;0.95;0.55;;;;;;;17.97;92.91;100761.09;5185821;28;20026;-79
2021/08/28 07:33:24;;;;;;;0.52;0.52;;;;;;;17.70;95.51;100768.06;5186718;28;20089;-78
2021/08/28 07:35:55;;;;;;;1.23;0.70;;;;;;;17.57;97.39;100764.47;5187137;28;20423;-78
2021/08/28 07:38:25;;;;;;;1.00;0.68;;;;;;;17.51;98.51;100757.75;5185382;28;20030;-78
2021/08/28 07:40:55;;;;;;;0.98;0.70;;;;;;;17.91;97.71;100762.31;5185343;28;20061;-78
2021/08/28 07:43:26;;;;;;;1.50;0.80;;;;;;;17.55;99.75;100764.59;5186479;28;20125;-79
2021/08/28 07:45:57;;;;;;;1.77;1.00;;;;;;;17.47;99.19;100764.19;5186651;28;20041;-79
2021/08/28 07:48:27;;;;;;;1.08;0.70;;;;;;;17.33;99.33;100758.84;5186544;28;20030;-78
2021/08/28 07:50:57;;;;;;;1.02;0.52;;;;;;;17.31;97.99;100759.91;5187264;28;20030;-78
2021/08/28 07:53:28;;;;;;;1.00;0.80;;;;;;;17.15;98.44;100761.75;5186263;28;20025;-78
2021/08/28 07:55:58;;;;;;;1.08;0.70;;;;;;;18.12;95.41;100771.53;5186979;28;20280;-79
2021/08/28 07:58:28;;;;;;;0.77;0.60;;;;;;;17.76;95.55;100765.03;5191324;28;20026;-79
2021/08/28 08:00:58;;;;;;;0.43;0.40;;;;;;;17.25;97.47;100768.16;5188567;28;20049;-78
2021/08/28 08:03:29;;;;;;;0.43;0.40;;;;;;;17.19;99.94;100769.41;5191118;28;20029;-79
2021/08/28 08:05:59;;;;;;;1.33;0.55;;;;;;;17.58;97.87;100779.38;5189177;28;20022;-78
2021/08/28 08:08:29;;;;;;;0.65;0.40;;;;;;;17.28;100.00;100776.78;5190745;28;20085;-77
2021/08/28 08:11:00;;;;;;;0.40;0.40;;;;;;;17.42;98.44;100768.03;5190234;28;20109;-78
2021/08/28 08:13:30;;;;;;;1.08;0.60;;;;;;;17.97;96.22;100763.72;5190479;28;20042;-79
2021/08/28 08:16:00;;;;;;;1.80;0.60;;;;;;;18.45;93.28;100773.84;5188344;28;20295;-78
2021/08/28 08:18:30;;;;;;;0.63;0.50;;;;;;;19.29;89.12;100769.88;5188546;28;20095;-78
2021/08/28 08:21:01;;;;;;;0.30;0.30;;;;;;;19.30;91.35;100766.28;5188997;28;20033;-78
2021/08/28 08:23:32;;;;;;;0.47;0.40;;;;;;;19.29;89.50;100764.59;5189070;28;20034;-78
2021/08/28 08:26:03;;;;;;;0.40;0.28;;;;;;;20.07;85.97;100761.72;5188558;28;20029;-80
2021/08/28 08:28:33;;;;;;;0.65;0.30;;;;;;;21.78;82.91;100754.81;5192853;28;20041;-79
2021/08/28 08:31:03;;;;;;;0.82;0.30;;;;;;;21.77;77.02;100768.25;5192288;28;20029;-80
2021/08/28 08:33:34;;;;;;;0.47;0.28;;;;;;;21.81;76.91;100757.25;5191374;28;20033;-80
2021/08/28 08:36:05;;;;;;;0.40;0.30;;;;;;;22.68;76.17;100760.78;5189836;28;20032;-80
2021/08/28 08:38:35;;;;;;;1.48;0.20;;;;;;;22.21;76.04;100768.22;5191635;28;20029;-80
2021/08/28 08:41:06;;;;;;;0.83;0.27;;;;;;;21.95;77.97;100767.63;5191251;28;20034;-80
2021/08/28 08:43:37;;;;;;;0.50;0.30;;;;;;;20.80;81.50;100772.19;5190851;28;20371;-79
2021/08/28 08:46:08;;;;;;;0.30;0.20;;;;;;;20.97;80.56;100771.81;5188641;28;20116;-80
2021/08/28 08:48:40;;;;;;;0.40;0.30;;;;;;;21.53;80.22;100770.97;5188500;28;20396;-79
2021/08/28 08:51:10;;;;;;;0.20;0.20;;;;;;;21.31;80.27;100772.75;5189917;28;20026;-80
2021/08/28 08:53:41;;;;;;;0.50;0.30;;;;;;;21.96;78.97;100765.84;5190336;28;20097;-79
2021/08/28 08:56:12;;;;;;;0.70;0.30;;;;;;;21.51;79.07;100756.09;5189690;28;20030;-80
2021/08/28 08:58:42;;;;;;;0.20;0.20;;;;;;;21.79;79.55;100768.97;5190761;28;20071;-79
2021/08/28 09:01:13;;;;;;;0.30;0.20;;;;;;;21.26;79.36;100758.97;5190965;28;20044;-79
2021/08/28 09:03:43;;;;;;;0.80;0.30;;;;;;;20.25;81.03;100772.81;5191274;28;20514;-79
2021/08/28 09:06:13;;;;;;;0.85;0.28;;;;;;;19.59;86.48;100769.59;5191054;28;20084;-79
2021/08/28 09:08:44;;;;;;;0.45;0.40;;;;;;;19.35;86.37;100782.75;5191636;28;20025;-79
2021/08/28 09:11:36;;;;;;;0.50;0.30;;;;;;;18.90;90.18;100791.09;5190213;28;20026;-79
2021/08/28 09:14:20;;;;;;;0.60;0.30;;;;;;;18.84;90.09;100786.19;5189019;28;20037;-79
2021/08/28 09:16:51;;;;;;;0.63;0.30;;;;;;;18.35;92.17;100772.75;5187708;28;20048;-77
2021/08/28 09:19:38;;;;;;;0.22;0.22;;;;;;;18.10;93.03;100785.78;5189387;28;20030;-78
2021/08/28 09:22:39;;;;;;;0.98;0.40;;;;;;;17.81;94.23;100773.56;5185848;28;20057;-78
2021/08/28 09:25:09;;;;;;;0.30;0.30;;;;;;;17.90;94.20;100786.19;5182318;28;20065;-77
2021/08/28 09:27:42;;;;;;;0.30;0.30;;;;;;;18.61;93.86;100785.13;5198490;28;20033;-78
2021/08/28 09:30:14;;;;;;;1.00;0.40;;;;;;;19.22;90.79;100770.41;5188273;28;20041;-78
2021/08/28 09:32:55;;;;;;;0.63;0.50;;;;;;;19.18;90.09;100771.56;5188603;28;20395;-78
2021/08/28 09:35:28;;;;;;;0.50;0.28;;;;;;;18.82;91.28;100779.28;5186321;28;20038;-79
2021/08/28 09:38:04;;;;;;;0.75;0.40;;;;;;;18.79;91.74;100777.69;5189932;28;20109;-78
2021/08/28 09:40:46;;;;;;;0.68;0.40;;;;;;;18.43;90.35;100784.56;5189281;28;20042;-78
2021/08/28 09:43:19;;;;;;;0.40;0.40;;;;;;;18.47;92.52;100777.25;5186181;28;20049;-78
2021/08/28 09:45:53;;;;;;;1.92;1.08;;;;;;;18.31;92.20;100781.84;5189320;28;20041;-78
2021/08/28 09:48:29;;;;;;;0.85;0.40;;;;;;;18.50;93.30;100777.06;5188243;28;20026;-78
2021/08/28 09:50:59;;;;;;;0.50;0.50;;;;;;;18.30;94.31;100774.81;5188465;28;20031;-78
2021/08/28 09:53:31;;;;;;;0.65;0.40;;;;;;;18.46;92.94;100772.91;5188407;28;20036;-78
2021/08/28 09:56:03;;;;;;;0.75;0.50;;;;;;;18.94;91.01;100773.19;5186725;28;20046;-79
2021/08/28 09:58:33;;;;;;;1.17;0.70;;;;;;;18.92;91.18;100775.09;5187985;28;20786;-78
2021/08/28 10:01:05;;;;;;;1.90;0.50;;;;;;;18.97;91.07;100771.16;5186529;28;20095;-78
2021/08/28 10:03:36;;;;;;;2.33;0.50;;;;;;;19.01;90.74;100770.03;5186868;28;20033;-78
2021/08/28 10:06:06;;;;;;;1.77;0.30;;;;;;;18.91;91.58;100771.59;5188391;28;20436;-77
2021/08/28 10:08:37;;;;;;;0.60;0.40;;;;;;;19.29;92.54;100763.75;5187791;28;20052;-78
2021/08/28 10:11:08;;;;;;;0.98;0.40;;;;;;;19.19;89.40;100767.97;5184106;28;20038;-78
2021/08/28 10:13:38;;;;;;;2.47;0.45;;;;;;;19.25;87.91;100762.28;5186069;28;20444;-78
2021/08/28 10:16:09;;;;;;;0.50;0.40;;;;;;;19.22;87.32;100765.09;5185332;28;20045;-78
2021/08/28 10:18:43;;;;;;;0.32;0.32;;;;;;;19.42;87.85;100756.66;5187069;28;20133;-78
2021/08/28 10:21:14;;;;;;;0.50;0.30;;;;;;;19.64;87.10;100760.34;5185015;28;20052;-78
2021/08/28 10:23:47;;;;;;;0.43;0.30;;;;;;;19.55;89.47;100762.78;5187827;28;20033;-78
2021/08/28 10:26:17;;;;;;;0.57;0.40;;;;;;;19.33;87.29;100771.41;5187508;28;20094;-79
2021/08/28 10:28:49;;;;;;;1.17;0.50;;;;;;;19.10;87.16;100774.69;5188460;28;20022;-80
2021/08/28 10:31:20;;;;;;;0.90;0.50;;;;;;;19.59;89.93;100769.59;5185870;28;20076;-80
2021/08/28 10:33:50;;;;;;;0.77;0.40;;;;;;;19.66;87.93;100769.06;5186999;28;20087;-79
2021/08/28 10:36:30;;;;;;;1.20;0.40;;;;;;;19.56;87.44;100773.31;5188292;28;20028;-79
2021/08/28 10:39:01;;;;;;;0.22;0.22;;;;;;;19.71;85.92;100766.94;5181323;28;20022;-79
2021/08/28 10:41:33;;;;;;;0.70;0.40;;;;;;;19.84;85.60;100766.91;5180476;28;20009;-79
2021/08/28 10:44:04;;;;;;;0.80;0.50;;;;;;;19.88;85.68;100768.41;5181470;28;20041;-79
2021/08/28 10:46:35;;;;;;;0.70;0.35;;;;;;;19.81;86.22;100757.38;5180608;28;20119;-78
2021/08/28 10:49:05;;;;;;;1.10;0.50;;;;;;;19.89;85.85;100757.69;5181554;28;20073;-79
2021/08/28 10:51:40;;;;;;;0.50;0.50;;;;;;;19.84;84.79;100751.88;5181448;28;20097;-78
2021/08/28 10:54:12;;;;;;;0.93;0.50;;;;;;;19.73;87.38;100759.72;5176168;28;20484;-79
2021/08/28 10:56:45;;;;;;;0.68;0.50;;;;;;;19.51;87.52;100753.34;5180472;28;20060;-79
2021/08/28 10:59:27;;;;;;;1.38;0.55;;;;;;;19.37;87.85;100764.94;5180831;28;20087;-78
2021/08/28 11:01:57;;;;;;;1.42;0.50;;;;;;;19.21;88.41;100766.91;5181403;28;20022;-78
2021/08/28 11:04:32;;;;;;;0.55;0.43;;;;;;;19.12;88.74;100766.66;5180209;28;20053;-79
2021/08/28 11:07:28;;;;;;;0.70;0.50;;;;;;;19.07;89.18;100769.63;5180332;28;20833;-78
2021/08/28 11:10:17;;;;;;;0.80;0.50;;;;;;;19.02;91.01;100766.44;5178827;28;20369;-79
2021/08/28 11:12:50;;;;;;;0.40;0.40;;;;;;;19.13;89.30;100763.88;5176174;28;20113;-79
2021/08/28 11:15:27;;;;;;;0.73;0.40;;;;;;;19.23;90.24;100758.84;5178167;28;20286;-78
2021/08/28 11:18:01;;;;;;;1.33;0.60;;;;;;;18.80;90.79;100758.19;5180951;28;20041;-79
2021/08/28 11:20:35;;;;;;;1.40;0.40;;;;;;;18.74;88.00;100769.22;5181594;28;20029;-79
2021/08/28 11:23:12;;;;;;;1.48;0.50;;;;;;;18.88;88.51;100758.56;5180099;28;20144;-79
2021/08/28 11:25:46;;;;;;;0.77;0.40;;;;;;;19.07;88.05;100759.00;5181038;28;20061;-78
2021/08/28 11:28:20;;;;;;;0.95;0.68;;;;;;;19.09;87.52;100756.28;5182697;28;20077;-78
2021/08/28 11:30:50;;;;;;;1.55;0.60;;;;;;;19.06;88.04;100762.63;5181944;28;20728;-78
2021/08/28 11:33:23;;;;;;;1.67;0.80;;;;;;;18.72;88.78;100767.59;5179343;28;20069;-78
2021/08/28 11:35:59;;;;;;;0.98;0.75;;;;;;;18.68;90.13;100766.09;5185156;28;20026;-78
2021/08/28 11:38:35;;;;;;;1.42;0.70;;;;;;;18.69;91.72;100772.28;5182945;28;20117;-78
2021/08/28 11:41:07;;;;;;;;;;;;;;;18.52;91.65;100764.56;5182809;28;20516;-79
2021/08/28 11:43:43;;;;;;;1.50;0.90;;;;;;;18.89;91.30;100770.84;5185623;28;20004;-79